Калининский

Карта отелей и гостиниц, располагающихся рядом с аэропортом Калининский :

Калининский Челябинская область 52° 31' 38.28" N, 59° 42' 7.956" E
Код аэродрома ИКАО: 
ZE72
Код аэродрома RU: 
ЗЕ72
Координаты: 
N52.52730° E059.70221°
Превышение над уровнем моря : 
367
Основная полоса: 
09/27
Курс магнитный: 
089,8/269,8
Длина основной ВПП: 
600
Ширина основной ВПП: 
100
Покрытие основной ВПП: 
Нетвёрдое (грунт)
Тип: 
Аэродром
Освещение ВПП: 
Нет
Класс аэродрома: 
Статус: 
Недействующий
Принадлежность: 
ГА
Сайт: 
E-mail аэродрома: 
Страна: 
Россия
Регион: 
Челябинская область
Город: 
Дополнительная информация: 
По данным Сборника №2 АНИ по МВЛ Уральского управления ГА (изд. 1981).

Найти трансфер

С помощью этой формы Вы можете найти трансфер из аэропорта Калининский в город, аэропорт или вокзал:

Карта места

Javascript is required to view this map.

Погода в аэропортах:

Авиационная погода в Брянске

Регион: 
Погода METAR: 
UUBP 141500Z 33009MPS 6000 -SHRA BKN007 OVC017CB 15/14 Q1003 R34/190060 NOSIG RMK QFE735/0980
Время наблюдения: 
2020-07-14T15:00:00Z
Температура C: 
15.0
Точка росы: 
14.0
Направление ветра: 
330
Скорость ветра: 
17
Метеорологическая видимость: 
3.73
Явления погоды: 
-SHRA
Условия полета: 
IFR
Аэропорт подробнее: 

Авиационная погода в аэропорту Сокол

Регион: 
Погода METAR: 
UHMM 141800Z 00000MPS 0250 0200W R10/0200N FG VV002 09/08 Q0998 RMK QBB060 MT OBSC QFE734 R28/24001MPS
Время наблюдения: 
2020-07-14T18:00:00Z
Температура C: 
9.0
Точка росы: 
8.0
Направление ветра: 
0
Скорость ветра: 
0
Метеорологическая видимость: 
0.16
Явления погоды: 
FG
Условия полета: 
LIFR
Аэропорт подробнее: 

Авиационная погода в Угольном

Регион: 
Погода METAR: 
UHMA 141800Z 00000MPS 1900 -DZ BR BKN004 BKN011 10/09 Q1003 R01/////// NOSIG RMK TDZ R01/00000G01MPS END R01/05001MPS MT OBSC QFE748/0998
Время наблюдения: 
2020-07-14T18:00:00Z
Температура C: 
10.0
Точка росы: 
9.0
Направление ветра: 
0
Скорость ветра: 
0
Метеорологическая видимость: 
1.18
Явления погоды: 
-DZ BR
Условия полета: 
LIFR
Аэропорт подробнее: 

Авиационная погода в Курске

Погода METAR: 
UUOK 141730Z 28004MPS 3100 -DZ BR OVC005 16/15 Q1000 R30/190055 NOSIG RMK QBB150 QFE731/0975
Время наблюдения: 
2020-07-14T17:30:00Z
Температура C: 
16.0
Точка росы: 
15.0
Направление ветра: 
280
Скорость ветра: 
8
Метеорологическая видимость: 
1.93
Явления погоды: 
-DZ BR
Условия полета: 
IFR
Аэропорт подробнее: